sensor_id;sensor_type;location;lat;lon;timestamp;pressure;altitude;pressure_sealevel;temperature
20092;BMP180;10205;49.678;6.560;2023-06-10T00:01:48;99577.00;;;29.00
20092;BMP180;10205;49.678;6.560;2023-06-10T00:04:16;99583.00;;;29.00
20092;BMP180;10205;49.678;6.560;2023-06-10T00:06:44;99580.00;;;28.90
20092;BMP180;10205;49.678;6.560;2023-06-10T00:09:11;99584.00;;;28.90
20092;BMP180;10205;49.678;6.560;2023-06-10T00:11:40;99586.00;;;28.80
20092;BMP180;10205;49.678;6.560;2023-06-10T00:14:08;99580.00;;;28.80
20092;BMP180;10205;49.678;6.560;2023-06-10T00:16:36;99575.00;;;28.70
20092;BMP180;10205;49.678;6.560;2023-06-10T00:19:05;99587.00;;;28.70
20092;BMP180;10205;49.678;6.560;2023-06-10T00:21:34;99569.00;;;28.60
20092;BMP180;10205;49.678;6.560;2023-06-10T00:24:04;99575.00;;;28.60
20092;BMP180;10205;49.678;6.560;2023-06-10T00:26:32;99575.00;;;28.50
20092;BMP180;10205;49.678;6.560;2023-06-10T00:29:00;99575.00;;;28.50
20092;BMP180;10205;49.678;6.560;2023-06-10T00:31:27;99583.00;;;28.40
20092;BMP180;10205;49.678;6.560;2023-06-10T00:33:55;99584.00;;;28.40
20092;BMP180;10205;49.678;6.560;2023-06-10T00:36:24;99591.00;;;28.30
20092;BMP180;10205;49.678;6.560;2023-06-10T00:38:52;99584.00;;;28.20
20092;BMP180;10205;49.678;6.560;2023-06-10T00:41:19;99577.00;;;28.20
20092;BMP180;10205;49.678;6.560;2023-06-10T00:43:46;99584.00;;;28.10
20092;BMP180;10205;49.678;6.560;2023-06-10T00:46:14;99584.00;;;28.10
20092;BMP180;10205;49.678;6.560;2023-06-10T00:48:43;99572.00;;;28.00
20092;BMP180;10205;49.678;6.560;2023-06-10T00:51:12;99576.00;;;28.00
20092;BMP180;10205;49.678;6.560;2023-06-10T00:53:40;99578.00;;;27.90
20092;BMP180;10205;49.678;6.560;2023-06-10T00:56:08;99568.00;;;27.90
20092;BMP180;10205;49.678;6.560;2023-06-10T00:58:36;99573.00;;;27.80
20092;BMP180;10205;49.678;6.560;2023-06-10T01:01:03;99575.00;;;27.80
20092;BMP180;10205;49.678;6.560;2023-06-10T01:03:31;99581.00;;;27.70
20092;BMP180;10205;49.678;6.560;2023-06-10T01:06:18;99579.00;;;27.70
20092;BMP180;10205;49.678;6.560;2023-06-10T01:08:55;99579.00;;;27.60
20092;BMP180;10205;49.678;6.560;2023-06-10T01:11:31;99581.00;;;27.50
20092;BMP180;10205;49.678;6.560;2023-06-10T01:14:02;99574.00;;;27.50
20092;BMP180;10205;49.678;6.560;2023-06-10T01:16:31;99584.00;;;27.40
20092;BMP180;10205;49.678;6.560;2023-06-10T01:18:58;99583.00;;;27.40
20092;BMP180;10205;49.678;6.560;2023-06-10T01:21:27;99577.00;;;27.30
20092;BMP180;10205;49.678;6.560;2023-06-10T01:23:56;99586.00;;;27.30
20092;BMP180;10205;49.678;6.560;2023-06-10T01:26:29;99581.00;;;27.20
20092;BMP180;10205;49.678;6.560;2023-06-10T01:29:02;99579.00;;;27.20
20092;BMP180;10205;49.678;6.560;2023-06-10T01:31:38;99583.00;;;27.10
20092;BMP180;10205;49.678;6.560;2023-06-10T01:34:13;99583.00;;;27.10
20092;BMP180;10205;49.678;6.560;2023-06-10T01:36:46;99581.00;;;27.00
20092;BMP180;10205;49.678;6.560;2023-06-10T01:39:15;99587.00;;;27.00
20092;BMP180;10205;49.678;6.560;2023-06-10T01:41:43;99588.00;;;26.90
20092;BMP180;10205;49.678;6.560;2023-06-10T01:44:12;99585.00;;;26.90
20092;BMP180;10205;49.678;6.560;2023-06-10T01:46:39;99587.00;;;26.80
20092;BMP180;10205;49.678;6.560;2023-06-10T01:49:06;99595.00;;;26.80
20092;BMP180;10205;49.678;6.560;2023-06-10T01:51:33;99593.00;;;26.70
20092;BMP180;10205;49.678;6.560;2023-06-10T01:54:02;99589.00;;;26.70
20092;BMP180;10205;49.678;6.560;2023-06-10T01:56:29;99592.00;;;26.70
20092;BMP180;10205;49.678;6.560;2023-06-10T01:58:57;99592.00;;;26.60
20092;BMP180;10205;49.678;6.560;2023-06-10T02:01:25;99591.00;;;26.60
20092;BMP180;10205;49.678;6.560;2023-06-10T02:03:52;99598.00;;;26.50
20092;BMP180;10205;49.678;6.560;2023-06-10T02:06:20;99594.00;;;26.50
20092;BMP180;10205;49.678;6.560;2023-06-10T02:08:47;99597.00;;;26.40
20092;BMP180;10205;49.678;6.560;2023-06-10T02:11:15;99605.00;;;26.40
20092;BMP180;10205;49.678;6.560;2023-06-10T02:13:43;99603.00;;;26.40
20092;BMP180;10205;49.678;6.560;2023-06-10T02:16:10;99599.00;;;26.30
20092;BMP180;10205;49.678;6.560;2023-06-10T02:18:39;99608.00;;;26.30
20092;BMP180;10205;49.678;6.560;2023-06-10T02:21:08;99607.00;;;26.20
20092;BMP180;10205;49.678;6.560;2023-06-10T02:23:36;99606.00;;;26.20
20092;BMP180;10205;49.678;6.560;2023-06-10T02:26:03;99606.00;;;26.20
20092;BMP180;10205;49.678;6.560;2023-06-10T02:28:31;99600.00;;;26.10
20092;BMP180;10205;49.678;6.560;2023-06-10T02:30:59;99606.00;;;26.00
20092;BMP180;10205;49.678;6.560;2023-06-10T02:33:26;99605.00;;;26.00
20092;BMP180;10205;49.678;6.560;2023-06-10T02:35:54;99605.00;;;26.00
20092;BMP180;10205;49.678;6.560;2023-06-10T02:38:21;99606.00;;;25.90
20092;BMP180;10205;49.678;6.560;2023-06-10T02:40:48;99608.00;;;25.90
20092;BMP180;10205;49.678;6.560;2023-06-10T02:43:16;99608.00;;;25.90
20092;BMP180;10205;49.678;6.560;2023-06-10T02:45:44;99608.00;;;25.80
20092;BMP180;10205;49.678;6.560;2023-06-10T02:48:11;99603.00;;;25.80
20092;BMP180;10205;49.678;6.560;2023-06-10T02:50:39;99604.00;;;25.70
20092;BMP180;10205;49.678;6.560;2023-06-10T02:53:06;99611.00;;;25.70
20092;BMP180;10205;49.678;6.560;2023-06-10T02:55:34;99614.00;;;25.60
20092;BMP180;10205;49.678;6.560;2023-06-10T02:58:01;99619.00;;;25.60
20092;BMP180;10205;49.678;6.560;2023-06-10T03:00:28;99621.00;;;25.60
20092;BMP180;10205;49.678;6.560;2023-06-10T03:02:57;99618.00;;;25.50
20092;BMP180;10205;49.678;6.560;2023-06-10T03:05:26;99619.00;;;25.50
20092;BMP180;10205;49.678;6.560;2023-06-10T03:07:53;99624.00;;;25.50
20092;BMP180;10205;49.678;6.560;2023-06-10T03:10:20;99623.00;;;25.40
20092;BMP180;10205;49.678;6.560;2023-06-10T03:12:48;99629.00;;;25.40
20092;BMP180;10205;49.678;6.560;2023-06-10T03:15:15;99630.00;;;25.30
20092;BMP180;10205;49.678;6.560;2023-06-10T03:17:42;99628.00;;;25.30
20092;BMP180;10205;49.678;6.560;2023-06-10T03:20:12;99627.00;;;25.20
20092;BMP180;10205;49.678;6.560;2023-06-10T03:22:41;99622.00;;;25.20
20092;BMP180;10205;49.678;6.560;2023-06-10T03:25:09;99630.00;;;25.20
20092;BMP180;10205;49.678;6.560;2023-06-10T03:27:39;99625.00;;;25.10
20092;BMP180;10205;49.678;6.560;2023-06-10T03:30:08;99632.00;;;25.10
20092;BMP180;10205;49.678;6.560;2023-06-10T03:32:36;99637.00;;;25.00
20092;BMP180;10205;49.678;6.560;2023-06-10T03:35:04;99632.00;;;25.00
20092;BMP180;10205;49.678;6.560;2023-06-10T03:37:33;99638.00;;;25.00
20092;BMP180;10205;49.678;6.560;2023-06-10T03:40:01;99635.00;;;24.90
20092;BMP180;10205;49.678;6.560;2023-06-10T03:42:29;99635.00;;;24.90
20092;BMP180;10205;49.678;6.560;2023-06-10T03:44:56;99644.00;;;24.80
20092;BMP180;10205;49.678;6.560;2023-06-10T03:47:23;99646.00;;;24.80
20092;BMP180;10205;49.678;6.560;2023-06-10T03:49:50;99641.00;;;24.80
20092;BMP180;10205;49.678;6.560;2023-06-10T03:52:19;99649.00;;;24.70
20092;BMP180;10205;49.678;6.560;2023-06-10T03:54:47;99646.00;;;24.70
20092;BMP180;10205;49.678;6.560;2023-06-10T03:57:14;99644.00;;;24.70
20092;BMP180;10205;49.678;6.560;2023-06-10T03:59:41;99651.00;;;24.60
20092;BMP180;10205;49.678;6.560;2023-06-10T04:02:09;99651.00;;;24.60
20092;BMP180;10205;49.678;6.560;2023-06-10T04:04:36;99647.00;;;24.50
20092;BMP180;10205;49.678;6.560;2023-06-10T04:07:04;99647.00;;;24.50
20092;BMP180;10205;49.678;6.560;2023-06-10T04:09:32;99656.00;;;24.50
20092;BMP180;10205;49.678;6.560;2023-06-10T04:12:00;99651.00;;;24.40
20092;BMP180;10205;49.678;6.560;2023-06-10T04:14:28;99653.00;;;24.40
20092;BMP180;10205;49.678;6.560;2023-06-10T04:16:55;99650.00;;;24.40
20092;BMP180;10205;49.678;6.560;2023-06-10T04:19:22;99664.00;;;24.30
20092;BMP180;10205;49.678;6.560;2023-06-10T04:21:49;99659.00;;;24.30
20092;BMP180;10205;49.678;6.560;2023-06-10T04:24:17;99653.00;;;24.30
20092;BMP180;10205;49.678;6.560;2023-06-10T04:26:44;99653.00;;;24.30
20092;BMP180;10205;49.678;6.560;2023-06-10T04:29:13;99655.00;;;24.20
20092;BMP180;10205;49.678;6.560;2023-06-10T04:31:40;99660.00;;;24.20
20092;BMP180;10205;49.678;6.560;2023-06-10T04:34:07;99664.00;;;24.20
20092;BMP180;10205;49.678;6.560;2023-06-10T04:36:34;99661.00;;;24.10
20092;BMP180;10205;49.678;6.560;2023-06-10T04:39:02;99668.00;;;24.10
20092;BMP180;10205;49.678;6.560;2023-06-10T04:41:29;99666.00;;;24.10
20092;BMP180;10205;49.678;6.560;2023-06-10T04:43:56;99664.00;;;24.00
20092;BMP180;10205;49.678;6.560;2023-06-10T04:46:25;99669.00;;;24.00
20092;BMP180;10205;49.678;6.560;2023-06-10T04:48:52;99666.00;;;24.00
20092;BMP180;10205;49.678;6.560;2023-06-10T04:51:20;99663.00;;;24.00
20092;BMP180;10205;49.678;6.560;2023-06-10T04:53:47;99664.00;;;23.90
20092;BMP180;10205;49.678;6.560;2023-06-10T04:56:14;99652.00;;;23.90
20092;BMP180;10205;49.678;6.560;2023-06-10T04:58:42;99669.00;;;23.90
20092;BMP180;10205;49.678;6.560;2023-06-10T05:01:09;99668.00;;;23.90
20092;BMP180;10205;49.678;6.560;2023-06-10T05:03:37;99670.00;;;23.80
20092;BMP180;10205;49.678;6.560;2023-06-10T05:06:05;99669.00;;;23.80
20092;BMP180;10205;49.678;6.560;2023-06-10T05:08:32;99669.00;;;23.80
20092;BMP180;10205;49.678;6.560;2023-06-10T05:11:02;99673.00;;;23.80
20092;BMP180;10205;49.678;6.560;2023-06-10T05:13:29;99670.00;;;23.70
20092;BMP180;10205;49.678;6.560;2023-06-10T05:15:57;99674.00;;;23.70
20092;BMP180;10205;49.678;6.560;2023-06-10T05:18:24;99674.00;;;23.70
20092;BMP180;10205;49.678;6.560;2023-06-10T05:20:53;99677.00;;;23.70
20092;BMP180;10205;49.678;6.560;2023-06-10T05:23:20;99678.00;;;23.70
20092;BMP180;10205;49.678;6.560;2023-06-10T05:25:47;99679.00;;;23.60
20092;BMP180;10205;49.678;6.560;2023-06-10T05:28:14;99678.00;;;23.60
20092;BMP180;10205;49.678;6.560;2023-06-10T05:30:42;99674.00;;;23.60
20092;BMP180;10205;49.678;6.560;2023-06-10T05:33:09;99679.00;;;23.60
20092;BMP180;10205;49.678;6.560;2023-06-10T05:35:36;99677.00;;;23.60
20092;BMP180;10205;49.678;6.560;2023-06-10T05:38:04;99678.00;;;23.60
20092;BMP180;10205;49.678;6.560;2023-06-10T05:40:32;99685.00;;;23.50
20092;BMP180;10205;49.678;6.560;2023-06-10T05:42:59;99681.00;;;23.50
20092;BMP180;10205;49.678;6.560;2023-06-10T05:45:27;99683.00;;;23.50
20092;BMP180;10205;49.678;6.560;2023-06-10T05:47:54;99688.00;;;23.50
20092;BMP180;10205;49.678;6.560;2023-06-10T05:50:23;99673.00;;;23.50
20092;BMP180;10205;49.678;6.560;2023-06-10T05:52:51;99683.00;;;23.50
20092;BMP180;10205;49.678;6.560;2023-06-10T05:55:20;99675.00;;;23.50
20092;BMP180;10205;49.678;6.560;2023-06-10T05:57:58;99677.00;;;23.50
20092;BMP180;10205;49.678;6.560;2023-06-10T06:00:25;99683.00;;;23.40
20092;BMP180;10205;49.678;6.560;2023-06-10T06:02:52;99679.00;;;23.40
20092;BMP180;10205;49.678;6.560;2023-06-10T06:05:20;99686.00;;;23.40
20092;BMP180;10205;49.678;6.560;2023-06-10T06:07:47;99679.00;;;23.40
20092;BMP180;10205;49.678;6.560;2023-06-10T06:10:14;99679.00;;;23.40
20092;BMP180;10205;49.678;6.560;2023-06-10T06:12:43;99679.00;;;23.50
20092;BMP180;10205;49.678;6.560;2023-06-10T06:15:11;99679.00;;;23.50
20092;BMP180;10205;49.678;6.560;2023-06-10T06:17:38;99687.00;;;23.50
20092;BMP180;10205;49.678;6.560;2023-06-10T06:20:07;99682.00;;;23.50
20092;BMP180;10205;49.678;6.560;2023-06-10T06:22:34;99682.00;;;23.50
20092;BMP180;10205;49.678;6.560;2023-06-10T06:25:02;99675.00;;;23.50
20092;BMP180;10205;49.678;6.560;2023-06-10T06:27:29;99677.00;;;23.60
20092;BMP180;10205;49.678;6.560;2023-06-10T06:29:58;99678.00;;;23.60
20092;BMP180;10205;49.678;6.560;2023-06-10T06:32:25;99676.00;;;23.60
20092;BMP180;10205;49.678;6.560;2023-06-10T06:34:53;99678.00;;;23.70
20092;BMP180;10205;49.678;6.560;2023-06-10T06:37:22;99679.00;;;23.70
20092;BMP180;10205;49.678;6.560;2023-06-10T06:39:50;99691.00;;;23.70
20092;BMP180;10205;49.678;6.560;2023-06-10T06:42:17;99682.00;;;23.80
20092;BMP180;10205;49.678;6.560;2023-06-10T06:44:45;99682.00;;;23.80
20092;BMP180;10205;49.678;6.560;2023-06-10T06:47:14;99680.00;;;23.90
20092;BMP180;10205;49.678;6.560;2023-06-10T06:49:43;99674.00;;;23.90
20092;BMP180;10205;49.678;6.560;2023-06-10T06:52:10;99679.00;;;24.00
20092;BMP180;10205;49.678;6.560;2023-06-10T06:54:37;99684.00;;;24.00
20092;BMP180;10205;49.678;6.560;2023-06-10T06:57:05;99681.00;;;24.10
20092;BMP180;10205;49.678;6.560;2023-06-10T06:59:33;99670.00;;;24.10
20092;BMP180;10205;49.678;6.560;2023-06-10T07:02:00;99680.00;;;24.20
20092;BMP180;10205;49.678;6.560;2023-06-10T07:04:28;99670.00;;;24.20
20092;BMP180;10205;49.678;6.560;2023-06-10T07:06:56;99679.00;;;24.30
20092;BMP180;10205;49.678;6.560;2023-06-10T07:09:23;99682.00;;;24.40
20092;BMP180;10205;49.678;6.560;2023-06-10T07:11:50;99682.00;;;24.40
20092;BMP180;10205;49.678;6.560;2023-06-10T07:14:18;99675.00;;;24.50
20092;BMP180;10205;49.678;6.560;2023-06-10T07:16:45;99682.00;;;24.50
20092;BMP180;10205;49.678;6.560;2023-06-10T07:19:14;99678.00;;;24.60
20092;BMP180;10205;49.678;6.560;2023-06-10T07:21:42;99678.00;;;24.70
20092;BMP180;10205;49.678;6.560;2023-06-10T07:24:10;99682.00;;;24.80
20092;BMP180;10205;49.678;6.560;2023-06-10T07:26:37;99671.00;;;24.90
20092;BMP180;10205;49.678;6.560;2023-06-10T07:29:04;99681.00;;;24.90
20092;BMP180;10205;49.678;6.560;2023-06-10T07:31:31;99671.00;;;25.00
20092;BMP180;10205;49.678;6.560;2023-06-10T07:33:59;99671.00;;;25.10
20092;BMP180;10205;49.678;6.560;2023-06-10T07:36:26;99681.00;;;25.20
20092;BMP180;10205;49.678;6.560;2023-06-10T07:38:56;99681.00;;;25.20
20092;BMP180;10205;49.678;6.560;2023-06-10T07:41:24;99685.00;;;25.30
20092;BMP180;10205;49.678;6.560;2023-06-10T07:43:53;99681.00;;;25.40
20092;BMP180;10205;49.678;6.560;2023-06-10T07:46:22;99684.00;;;25.50
20092;BMP180;10205;49.678;6.560;2023-06-10T07:48:49;99677.00;;;25.60
20092;BMP180;10205;49.678;6.560;2023-06-10T07:51:17;99690.00;;;25.60
20092;BMP180;10205;49.678;6.560;2023-06-10T07:53:44;99684.00;;;25.70
20092;BMP180;10205;49.678;6.560;2023-06-10T07:56:12;99676.00;;;25.80
20092;BMP180;10205;49.678;6.560;2023-06-10T07:58:40;99677.00;;;25.90
20092;BMP180;10205;49.678;6.560;2023-06-10T08:01:07;99682.00;;;26.00
20092;BMP180;10205;49.678;6.560;2023-06-10T08:03:34;99680.00;;;26.10
20092;BMP180;10205;49.678;6.560;2023-06-10T08:06:02;99679.00;;;26.20
20092;BMP180;10205;49.678;6.560;2023-06-10T08:08:29;99678.00;;;26.20
20092;BMP180;10205;49.678;6.560;2023-06-10T08:10:57;99684.00;;;26.40
20092;BMP180;10205;49.678;6.560;2023-06-10T08:13:25;99680.00;;;26.40
20092;BMP180;10205;49.678;6.560;2023-06-10T08:15:52;99684.00;;;26.50
20092;BMP180;10205;49.678;6.560;2023-06-10T08:18:21;99684.00;;;26.60
20092;BMP180;10205;49.678;6.560;2023-06-10T08:20:48;99682.00;;;26.70
20092;BMP180;10205;49.678;6.560;2023-06-10T08:23:16;99676.00;;;26.80
20092;BMP180;10205;49.678;6.560;2023-06-10T08:25:43;99673.00;;;26.90
20092;BMP180;10205;49.678;6.560;2023-06-10T08:28:10;99671.00;;;27.00
20092;BMP180;10205;49.678;6.560;2023-06-10T08:30:38;99677.00;;;27.10
20092;BMP180;10205;49.678;6.560;2023-06-10T08:33:06;99676.00;;;27.20
20092;BMP180;10205;49.678;6.560;2023-06-10T08:35:33;99668.00;;;27.30
20092;BMP180;10205;49.678;6.560;2023-06-10T08:38:00;99665.00;;;27.40
20092;BMP180;10205;49.678;6.560;2023-06-10T08:40:27;99673.00;;;27.50
20092;BMP180;10205;49.678;6.560;2023-06-10T08:43:05;99674.00;;;27.60
20092;BMP180;10205;49.678;6.560;2023-06-10T08:45:37;99674.00;;;27.70
20092;BMP180;10205;49.678;6.560;2023-06-10T08:48:05;99674.00;;;27.80
20092;BMP180;10205;49.678;6.560;2023-06-10T08:50:35;99664.00;;;27.90
20092;BMP180;10205;49.678;6.560;2023-06-10T08:53:06;99659.00;;;28.00
20092;BMP180;10205;49.678;6.560;2023-06-10T08:55:37;99654.00;;;28.10
20092;BMP180;10205;49.678;6.560;2023-06-10T08:58:05;99655.00;;;28.20
20092;BMP180;10205;49.678;6.560;2023-06-10T09:00:33;99649.00;;;28.40
20092;BMP180;10205;49.678;6.560;2023-06-10T09:03:04;99646.00;;;28.50
20092;BMP180;10205;49.678;6.560;2023-06-10T09:05:35;99661.00;;;28.60
20092;BMP180;10205;49.678;6.560;2023-06-10T09:08:04;99654.00;;;28.70
20092;BMP180;10205;49.678;6.560;2023-06-10T09:10:33;99648.00;;;28.80
20092;BMP180;10205;49.678;6.560;2023-06-10T09:13:00;99647.00;;;28.90
20092;BMP180;10205;49.678;6.560;2023-06-10T09:15:28;99643.00;;;29.00
20092;BMP180;10205;49.678;6.560;2023-06-10T09:17:55;99644.00;;;29.10
20092;BMP180;10205;49.678;6.560;2023-06-10T09:20:24;99642.00;;;29.30
20092;BMP180;10205;49.678;6.560;2023-06-10T09:22:51;99643.00;;;29.40
20092;BMP180;10205;49.678;6.560;2023-06-10T09:25:18;99644.00;;;29.50
20092;BMP180;10205;49.678;6.560;2023-06-10T09:27:47;99641.00;;;29.60
20092;BMP180;10205;49.678;6.560;2023-06-10T09:30:26;99645.00;;;29.70
20092;BMP180;10205;49.678;6.560;2023-06-10T09:32:54;99647.00;;;29.80
20092;BMP180;10205;49.678;6.560;2023-06-10T09:35:25;99643.00;;;30.00
20092;BMP180;10205;49.678;6.560;2023-06-10T09:37:53;99640.00;;;30.10
20092;BMP180;10205;49.678;6.560;2023-06-10T09:40:20;99642.00;;;30.20
20092;BMP180;10205;49.678;6.560;2023-06-10T09:42:54;99641.00;;;30.30
20092;BMP180;10205;49.678;6.560;2023-06-10T09:45:23;99645.00;;;30.40
20092;BMP180;10205;49.678;6.560;2023-06-10T09:47:52;99647.00;;;30.50
20092;BMP180;10205;49.678;6.560;2023-06-10T09:50:20;99646.00;;;30.60
20092;BMP180;10205;49.678;6.560;2023-06-10T09:52:49;99644.00;;;30.70
20092;BMP180;10205;49.678;6.560;2023-06-10T09:55:17;99652.00;;;30.80
20092;BMP180;10205;49.678;6.560;2023-06-10T09:57:48;99631.00;;;30.90
20092;BMP180;10205;49.678;6.560;2023-06-10T10:00:17;99644.00;;;31.00
20092;BMP180;10205;49.678;6.560;2023-06-10T10:02:47;99649.00;;;31.10
20092;BMP180;10205;49.678;6.560;2023-06-10T10:05:16;99651.00;;;31.20
20092;BMP180;10205;49.678;6.560;2023-06-10T10:07:44;99639.00;;;31.30
20092;BMP180;10205;49.678;6.560;2023-06-10T10:10:15;99647.00;;;31.40
20092;BMP180;10205;49.678;6.560;2023-06-10T10:12:46;99633.00;;;31.50
20092;BMP180;10205;49.678;6.560;2023-06-10T10:15:17;99638.00;;;31.50
20092;BMP180;10205;49.678;6.560;2023-06-10T10:17:50;99634.00;;;31.60
20092;BMP180;10205;49.678;6.560;2023-06-10T10:20:24;99641.00;;;31.70
20092;BMP180;10205;49.678;6.560;2023-06-10T10:22:55;99634.00;;;31.80
20092;BMP180;10205;49.678;6.560;2023-06-10T10:25:28;99647.00;;;31.90
20092;BMP180;10205;49.678;6.560;2023-06-10T10:28:01;99637.00;;;32.00
20092;BMP180;10205;49.678;6.560;2023-06-10T10:30:35;99651.00;;;32.10
20092;BMP180;10205;49.678;6.560;2023-06-10T10:33:09;99644.00;;;32.20
20092;BMP180;10205;49.678;6.560;2023-06-10T10:35:40;99642.00;;;32.30
20092;BMP180;10205;49.678;6.560;2023-06-10T10:38:09;99642.00;;;32.40
20092;BMP180;10205;49.678;6.560;2023-06-10T10:40:38;99640.00;;;32.50
20092;BMP180;10205;49.678;6.560;2023-06-10T10:43:07;99631.00;;;32.60
20092;BMP180;10205;49.678;6.560;2023-06-10T10:45:35;99638.00;;;32.70
20092;BMP180;10205;49.678;6.560;2023-06-10T10:48:08;99645.00;;;32.80
20092;BMP180;10205;49.678;6.560;2023-06-10T10:50:38;99641.00;;;32.90
20092;BMP180;10205;49.678;6.560;2023-06-10T10:53:06;99637.00;;;33.00
20092;BMP180;10205;49.678;6.560;2023-06-10T10:55:33;99638.00;;;33.10
20092;BMP180;10205;49.678;6.560;2023-06-10T10:58:06;99646.00;;;33.10
20092;BMP180;10205;49.678;6.560;2023-06-10T11:00:35;99647.00;;;33.20
20092;BMP180;10205;49.678;6.560;2023-06-10T11:03:07;99648.00;;;33.30
20092;BMP180;10205;49.678;6.560;2023-06-10T11:05:40;99642.00;;;33.30
20092;BMP180;10205;49.678;6.560;2023-06-10T11:08:11;99623.00;;;33.40
20092;BMP180;10205;49.678;6.560;2023-06-10T11:10:40;99629.00;;;33.50
20092;BMP180;10205;49.678;6.560;2023-06-10T11:13:10;99629.00;;;33.60
20092;BMP180;10205;49.678;6.560;2023-06-10T11:15:44;99626.00;;;33.60
20092;BMP180;10205;49.678;6.560;2023-06-10T11:18:21;99622.00;;;33.70
20092;BMP180;10205;49.678;6.560;2023-06-10T11:20:58;99633.00;;;33.80
20092;BMP180;10205;49.678;6.560;2023-06-10T11:23:40;99630.00;;;33.90
20092;BMP180;10205;49.678;6.560;2023-06-10T11:26:31;99622.00;;;34.00
20092;BMP180;10205;49.678;6.560;2023-06-10T11:29:09;99624.00;;;34.00
20092;BMP180;10205;49.678;6.560;2023-06-10T11:31:46;99612.00;;;34.10
20092;BMP180;10205;49.678;6.560;2023-06-10T11:34:21;99614.00;;;34.20
20092;BMP180;10205;49.678;6.560;2023-06-10T11:36:51;99617.00;;;34.30
20092;BMP180;10205;49.678;6.560;2023-06-10T11:39:20;99626.00;;;34.40
20092;BMP180;10205;49.678;6.560;2023-06-10T11:41:50;99622.00;;;34.50
20092;BMP180;10205;49.678;6.560;2023-06-10T11:44:19;99624.00;;;34.60
20092;BMP180;10205;49.678;6.560;2023-06-10T11:46:48;99629.00;;;34.70
20092;BMP180;10205;49.678;6.560;2023-06-10T11:49:17;99633.00;;;34.70
20092;BMP180;10205;49.678;6.560;2023-06-10T11:51:44;99628.00;;;34.80
20092;BMP180;10205;49.678;6.560;2023-06-10T11:54:15;99623.00;;;34.90
20092;BMP180;10205;49.678;6.560;2023-06-10T11:56:44;99622.00;;;34.90
20092;BMP180;10205;49.678;6.560;2023-06-10T11:59:11;99612.00;;;35.00
20092;BMP180;10205;49.678;6.560;2023-06-10T12:01:44;99615.00;;;35.10
20092;BMP180;10205;49.678;6.560;2023-06-10T12:04:15;99622.00;;;35.10
20092;BMP180;10205;49.678;6.560;2023-06-10T12:06:45;99604.00;;;35.20
20092;BMP180;10205;49.678;6.560;2023-06-10T12:09:15;99601.00;;;35.30
20092;BMP180;10205;49.678;6.560;2023-06-10T12:11:43;99618.00;;;35.30
20092;BMP180;10205;49.678;6.560;2023-06-10T12:14:10;99609.00;;;35.40
20092;BMP180;10205;49.678;6.560;2023-06-10T12:16:39;99611.00;;;35.50
20092;BMP180;10205;49.678;6.560;2023-06-10T12:19:07;99586.00;;;35.60
20092;BMP180;10205;49.678;6.560;2023-06-10T12:21:36;99606.00;;;35.60
20092;BMP180;10205;49.678;6.560;2023-06-10T12:24:09;99612.00;;;35.70
20092;BMP180;10205;49.678;6.560;2023-06-10T12:26:39;99613.00;;;35.70
20092;BMP180;10205;49.678;6.560;2023-06-10T12:29:20;99606.00;;;35.80
20092;BMP180;10205;49.678;6.560;2023-06-10T12:31:59;99606.00;;;35.80
20092;BMP180;10205;49.678;6.560;2023-06-10T12:34:37;99604.00;;;35.90
20092;BMP180;10205;49.678;6.560;2023-06-10T12:37:10;99599.00;;;36.00
20092;BMP180;10205;49.678;6.560;2023-06-10T12:39:40;99621.00;;;36.10
20092;BMP180;10205;49.678;6.560;2023-06-10T12:42:09;99598.00;;;36.10
20092;BMP180;10205;49.678;6.560;2023-06-10T12:44:40;99599.00;;;36.20
20092;BMP180;10205;49.678;6.560;2023-06-10T12:47:10;99607.00;;;36.20
20092;BMP180;10205;49.678;6.560;2023-06-10T12:49:38;99612.00;;;36.30
20092;BMP180;10205;49.678;6.560;2023-06-10T12:52:06;99610.00;;;36.30
20092;BMP180;10205;49.678;6.560;2023-06-10T12:54:34;99609.00;;;36.40
20092;BMP180;10205;49.678;6.560;2023-06-10T12:57:02;99607.00;;;36.50
20092;BMP180;10205;49.678;6.560;2023-06-10T12:59:29;99604.00;;;36.60
20092;BMP180;10205;49.678;6.560;2023-06-10T13:01:58;99605.00;;;36.60
20092;BMP180;10205;49.678;6.560;2023-06-10T13:04:27;99612.00;;;36.70
20092;BMP180;10205;49.678;6.560;2023-06-10T13:06:54;99603.00;;;36.70
20092;BMP180;10205;49.678;6.560;2023-06-10T13:09:21;99599.00;;;36.70
20092;BMP180;10205;49.678;6.560;2023-06-10T13:11:49;99601.00;;;36.80
20092;BMP180;10205;49.678;6.560;2023-06-10T13:14:16;99589.00;;;36.80
20092;BMP180;10205;49.678;6.560;2023-06-10T13:16:43;99587.00;;;36.90
20092;BMP180;10205;49.678;6.560;2023-06-10T13:19:11;99591.00;;;36.90
20092;BMP180;10205;49.678;6.560;2023-06-10T13:21:39;99581.00;;;37.00
20092;BMP180;10205;49.678;6.560;2023-06-10T13:24:07;99576.00;;;37.00
20092;BMP180;10205;49.678;6.560;2023-06-10T13:26:34;99580.00;;;37.10
20092;BMP180;10205;49.678;6.560;2023-06-10T13:29:01;99576.00;;;37.10
20092;BMP180;10205;49.678;6.560;2023-06-10T13:31:28;99570.00;;;37.20
20092;BMP180;10205;49.678;6.560;2023-06-10T13:33:56;99578.00;;;37.20
20092;BMP180;10205;49.678;6.560;2023-06-10T13:36:23;99575.00;;;37.20
20092;BMP180;10205;49.678;6.560;2023-06-10T13:38:52;99569.00;;;37.20
20092;BMP180;10205;49.678;6.560;2023-06-10T13:41:19;99573.00;;;37.20
20092;BMP180;10205;49.678;6.560;2023-06-10T13:43:46;99572.00;;;37.30
20092;BMP180;10205;49.678;6.560;2023-06-10T13:46:13;99569.00;;;37.30
20092;BMP180;10205;49.678;6.560;2023-06-10T13:48:40;99569.00;;;37.20
20092;BMP180;10205;49.678;6.560;2023-06-10T13:51:08;99569.00;;;37.20
20092;BMP180;10205;49.678;6.560;2023-06-10T13:53:36;99573.00;;;37.20
20092;BMP180;10205;49.678;6.560;2023-06-10T13:56:04;99578.00;;;37.20
20092;BMP180;10205;49.678;6.560;2023-06-10T13:58:31;99568.00;;;37.10
20092;BMP180;10205;49.678;6.560;2023-06-10T14:01:04;99577.00;;;37.10
20092;BMP180;10205;49.678;6.560;2023-06-10T14:03:32;99572.00;;;37.10
20092;BMP180;10205;49.678;6.560;2023-06-10T14:05:59;99571.00;;;37.10
20092;BMP180;10205;49.678;6.560;2023-06-10T14:08:26;99578.00;;;37.00
20092;BMP180;10205;49.678;6.560;2023-06-10T14:10:53;99571.00;;;36.90
20092;BMP180;10205;49.678;6.560;2023-06-10T14:13:22;99572.00;;;36.80
20092;BMP180;10205;49.678;6.560;2023-06-10T14:15:49;99575.00;;;36.80
20092;BMP180;10205;49.678;6.560;2023-06-10T14:18:16;99575.00;;;36.80